Time;durP1;ratioP1;P1;durP2;ratioP2;P2;SDS_P1;SDS_P2;PMS_P1;PMS_P2;Temp;Humidity;BMP_temperature;BMP_pressure;BME280_temperature;BME280_humidity;BME280_pressure;Samples;Min_cycle;Max_cycle;Signal;HPM_P1;HPM_P2
2023/11/06 00:00:36;;;;;;;4.40;1.50;;;14.00;67.70;15.50;99092.00;;;;4999616;28;20208;-78
2023/11/06 00:03:03;;;;;;;2.72;1.08;;;13.90;67.60;15.50;99093.00;;;;5002925;28;20201;-78
2023/11/06 00:05:32;;;;;;;2.50;1.23;;;14.00;67.80;15.50;99096.00;;;;5001731;28;20247;-78
2023/11/06 00:07:59;;;;;;;2.17;1.15;;;13.90;67.80;15.50;99098.00;;;;5008411;28;20205;-78
2023/11/06 00:10:26;;;;;;;2.42;1.38;;;13.90;67.90;15.50;99095.00;;;;5005941;28;20870;-78
2023/11/06 00:12:53;;;;;;;2.72;1.23;;;13.90;68.00;15.60;99098.00;;;;5005042;28;20318;-78
2023/11/06 00:15:20;;;;;;;5.32;1.77;;;13.90;68.00;15.60;99107.00;;;;5006113;28;20207;-78
2023/11/06 00:17:47;;;;;;;3.38;1.52;;;13.90;68.10;15.60;99105.00;;;;5007973;28;20207;-78
2023/11/06 00:20:16;;;;;;;6.10;1.50;;;14.00;68.00;15.60;99116.00;;;;5018805;28;20204;-78
2023/11/06 00:22:44;;;;;;;4.13;1.30;;;13.90;67.90;15.50;99108.00;;;;5005537;28;20236;-78
2023/11/06 00:25:12;;;;;;;5.03;1.70;;;13.90;67.90;15.50;99115.00;;;;5003754;28;20216;-78
2023/11/06 00:27:39;;;;;;;4.80;1.90;;;13.90;68.00;15.60;99111.00;;;;5005768;28;20208;-78
2023/11/06 00:30:08;;;;;;;5.45;2.00;;;13.90;68.10;15.50;99115.00;;;;5007815;28;20232;-78
2023/11/06 00:32:35;;;;;;;4.55;1.73;;;13.90;68.10;15.60;99115.00;;;;5008131;28;20284;-78
2023/11/06 00:35:04;;;;;;;3.45;1.85;;;13.90;68.10;15.50;99114.00;;;;5006104;28;20212;-78
2023/11/06 00:37:31;;;;;;;3.78;1.67;;;14.00;68.20;15.50;99124.00;;;;5013162;28;20232;-78
2023/11/06 00:40:00;;;;;;;5.60;1.70;;;13.90;68.20;15.50;99120.00;;;;5005899;28;20216;-78
2023/11/06 00:42:27;;;;;;;3.80;1.58;;;13.90;68.10;15.50;99136.00;;;;5009289;28;20196;-79
2023/11/06 00:44:54;;;;;;;6.43;1.55;;;14.00;68.20;15.50;99139.00;;;;5005936;28;20201;-79
2023/11/06 00:47:22;;;;;;;2.90;1.48;;;13.90;68.10;15.50;99135.00;;;;5003364;28;20659;-79
2023/11/06 00:49:49;;;;;;;4.32;1.00;;;13.90;68.10;15.60;99144.00;;;;5006748;28;20189;-79
2023/11/06 00:52:16;;;;;;;9.95;2.05;;;13.90;68.20;15.60;99143.00;;;;5008420;28;20227;-79
2023/11/06 00:54:43;;;;;;;4.18;1.48;;;13.90;68.20;15.60;99148.00;;;;5007735;28;21616;-79
2023/11/06 00:57:12;;;;;;;3.33;1.33;;;13.90;68.20;15.50;99145.00;;;;5006395;28;20216;-79
2023/11/06 00:59:39;;;;;;;3.42;1.15;;;14.00;68.30;15.60;99147.00;;;;5005633;28;20288;-79
2023/11/06 01:02:06;;;;;;;4.00;1.45;;;14.00;68.30;15.60;99150.00;;;;5006375;28;20675;-78
2023/11/06 01:04:33;;;;;;;1.60;1.10;;;14.00;68.30;15.60;99144.00;;;;5005785;28;20196;-79
2023/11/06 01:07:00;;;;;;;2.33;1.15;;;14.00;68.20;15.60;99153.00;;;;5008280;28;20710;-79
2023/11/06 01:09:27;;;;;;;4.57;1.33;;;14.00;68.20;15.60;99161.00;;;;5007171;28;20695;-79
2023/11/06 01:11:54;;;;;;;4.53;1.63;;;14.00;68.20;15.60;99160.00;;;;5006029;28;20601;-80
2023/11/06 01:14:23;;;;;;;4.40;1.35;;;14.00;68.10;15.50;99167.00;;;;5006767;28;20204;-79
2023/11/06 01:16:50;;;;;;;2.15;1.45;;;14.00;68.10;15.50;99173.00;;;;5008439;28;20193;-79
2023/11/06 01:19:17;;;;;;;3.25;1.00;;;14.00;68.00;15.50;99178.00;;;;5008528;28;20575;-79
2023/11/06 01:21:44;;;;;;;2.58;1.38;;;14.00;67.90;15.50;99180.00;;;;5006800;28;20207;-78
2023/11/06 01:24:12;;;;;;;2.35;1.05;;;14.00;67.90;15.50;99175.00;;;;5005370;28;20193;-79
2023/11/06 01:26:42;;;;;;;3.30;0.70;;;13.90;67.80;15.50;99188.00;;;;5007676;28;20208;-79
2023/11/06 01:29:10;;;;;;;1.58;0.80;;;13.90;67.80;15.50;99197.00;;;;5009169;28;20678;-77
2023/11/06 01:31:38;;;;;;;4.45;0.80;;;13.90;67.90;15.50;99197.00;;;;5007351;28;20224;-79
2023/11/06 01:34:06;;;;;;;2.38;1.08;;;13.90;68.10;15.50;99206.00;;;;5003590;28;20240;-79
2023/11/06 01:36:33;;;;;;;0.98;0.50;;;13.80;68.10;15.50;99213.00;;;;5006512;28;20201;-79
2023/11/06 01:39:00;;;;;;;1.42;0.82;;;13.90;68.20;15.50;99208.00;;;;5008076;28;20215;-79
2023/11/06 01:41:27;;;;;;;1.75;0.68;;;13.80;68.10;15.50;99214.00;;;;5008003;28;20197;-78
2023/11/06 01:43:54;;;;;;;1.23;0.60;;;13.80;68.10;15.50;99216.00;;;;5008329;28;20197;-79
2023/11/06 01:46:22;;;;;;;1.38;0.80;;;13.90;68.20;15.50;99230.00;;;;5005626;28;20201;-79
2023/11/06 01:48:52;;;;;;;1.55;0.73;;;13.90;68.20;15.50;99220.00;;;;5007068;28;20193;-79
2023/11/06 01:51:20;;;;;;;2.90;0.70;;;13.90;68.30;15.50;99235.00;;;;5007771;28;20694;-79
2023/11/06 01:53:48;;;;;;;2.08;0.70;;;13.90;68.30;15.50;99237.00;;;;5007698;28;20185;-79
2023/11/06 01:56:15;;;;;;;2.28;0.90;;;13.90;68.30;15.50;99228.00;;;;5004990;28;20196;-79
2023/11/06 01:58:44;;;;;;;1.90;0.70;;;13.90;68.30;15.50;99230.00;;;;5006572;28;20204;-79
2023/11/06 02:01:12;;;;;;;2.42;1.10;;;13.90;68.30;15.60;99226.00;;;;5006947;28;20200;-79
2023/11/06 02:03:40;;;;;;;1.60;0.82;;;13.90;68.30;15.50;99230.00;;;;5003536;28;20197;-79
2023/11/06 02:06:10;;;;;;;2.72;1.02;;;13.90;68.30;15.50;99237.00;;;;5005003;28;20247;-79
2023/11/06 02:08:37;;;;;;;2.35;1.35;;;13.90;68.30;15.60;99237.00;;;;5007738;28;20193;-79
2023/11/06 02:11:06;;;;;;;1.88;0.85;;;13.90;68.20;15.60;99236.00;;;;5003314;28;20706;-79
2023/11/06 02:13:32;;;;;;;2.67;1.08;;;13.90;68.20;15.60;99233.00;;;;5000229;28;20225;-79
2023/11/06 02:16:00;;;;;;;2.15;0.90;;;14.00;68.30;15.60;99235.00;;;;5001309;28;20686;-79
2023/11/06 02:18:27;;;;;;;1.35;0.90;;;14.00;68.30;15.60;99239.00;;;;5005202;28;20293;-79
2023/11/06 02:20:57;;;;;;;4.03;1.27;;;13.90;68.20;15.60;99239.00;;;;5007520;28;20204;-79
2023/11/06 02:23:27;;;;;;;3.28;1.20;;;13.90;68.20;15.50;99246.00;;;;5006622;28;20201;-80
2023/11/06 02:25:55;;;;;;;3.55;1.13;;;13.90;68.20;15.50;99245.00;;;;5007053;28;20193;-79
2023/11/06 02:28:23;;;;;;;3.58;1.10;;;13.90;68.20;15.60;99246.00;;;;5006757;28;20208;-79
2023/11/06 02:30:52;;;;;;;1.42;1.17;;;14.00;68.30;15.60;99248.00;;;;5006904;28;20598;-79
2023/11/06 02:33:19;;;;;;;1.63;0.90;;;13.90;68.20;15.50;99248.00;;;;5000922;28;20319;-80
2023/11/06 02:35:47;;;;;;;2.60;0.77;;;13.90;68.20;15.50;99253.00;;;;5006441;28;20185;-80
2023/11/06 02:38:14;;;;;;;4.55;1.23;;;13.90;68.10;15.50;99259.00;;;;5007006;28;20789;-79
2023/11/06 02:40:43;;;;;;;1.45;1.00;;;13.90;68.10;15.50;99251.00;;;;5007920;28;20288;-79
2023/11/06 02:43:10;;;;;;;1.80;1.02;;;13.90;68.00;15.50;99261.00;;;;5006060;28;20204;-79
2023/11/06 02:45:37;;;;;;;3.58;1.50;;;13.90;68.00;15.40;99261.00;;;;5005018;28;20209;-79
2023/11/06 02:48:05;;;;;;;2.83;1.20;;;13.90;68.00;15.40;99264.00;;;;5005189;28;20664;-79
2023/11/06 02:50:32;;;;;;;2.58;1.00;;;13.80;67.90;15.40;99268.00;;;;5007347;28;20208;-79
2023/11/06 02:53:00;;;;;;;1.65;0.90;;;13.80;67.80;15.40;99276.00;;;;5008678;28;20229;-78
2023/11/06 02:55:26;;;;;;;1.73;1.10;;;13.80;67.80;15.30;99277.00;;;;5013342;28;20216;-79
2023/11/06 02:57:55;;;;;;;3.65;1.40;;;13.70;67.80;15.30;99289.00;;;;5009672;28;20228;-79
2023/11/06 03:00:22;;;;;;;3.28;1.25;;;13.70;68.50;15.30;99289.00;;;;5007259;28;20204;-79
2023/11/06 03:02:49;;;;;;;2.08;1.10;;;13.70;67.80;15.20;99287.00;;;;5009835;28;20217;-79
2023/11/06 03:05:18;;;;;;;3.60;1.08;;;13.70;68.00;15.20;99299.00;;;;5007295;28;20203;-79
2023/11/06 03:07:45;;;;;;;3.67;1.30;;;13.70;68.00;15.20;99294.00;;;;5009340;28;20204;-79
2023/11/06 03:10:12;;;;;;;3.38;1.08;;;13.60;68.00;15.20;99299.00;;;;5009434;28;20201;-79
2023/11/06 03:12:39;;;;;;;4.13;1.25;;;13.60;68.10;15.20;99309.00;;;;5008536;28;20236;-79
2023/11/06 03:15:10;;;;;;;2.65;1.20;;;13.60;68.10;15.10;99313.00;;;;5009826;28;20697;-79
2023/11/06 03:17:37;;;;;;;2.53;1.35;;;13.60;68.20;15.10;99313.00;;;;5009103;28;20200;-79
2023/11/06 03:20:10;;;;;;;3.70;1.02;;;13.60;68.20;15.10;99319.00;;;;5009320;28;20714;-79
2023/11/06 03:22:37;;;;;;;4.95;1.30;;;13.60;68.40;15.10;99320.00;;;;5007362;28;20197;-79
2023/11/06 03:25:06;;;;;;;2.72;1.13;;;13.50;68.40;15.10;99314.00;;;;5004751;28;20208;-79
2023/11/06 03:27:33;;;;;;;2.85;1.10;;;13.60;68.50;15.10;99331.00;;;;5005377;28;20208;-79
2023/11/06 03:30:00;;;;;;;2.38;1.35;;;13.60;68.60;15.20;99326.00;;;;5003839;28;20255;-79
2023/11/06 03:32:29;;;;;;;3.88;1.33;;;13.50;68.60;15.10;99323.00;;;;5018210;28;20244;-79
2023/11/06 03:34:57;;;;;;;3.75;1.52;;;13.50;68.70;15.20;99322.00;;;;5008389;28;20216;-79
2023/11/06 03:37:24;;;;;;;2.72;1.02;;;13.60;68.70;15.20;99320.00;;;;5006767;28;20201;-79
2023/11/06 03:39:51;;;;;;;4.70;1.52;;;13.60;68.70;15.20;99325.00;;;;5008139;28;20209;-79
2023/11/06 03:42:18;;;;;;;1.60;1.10;;;13.60;68.80;15.20;99325.00;;;;5009121;28;20204;-79
2023/11/06 03:44:45;;;;;;;3.58;1.20;;;13.60;68.60;15.20;99325.00;;;;5009018;28;20284;-79
2023/11/06 03:47:12;;;;;;;1.63;0.98;;;13.60;68.50;15.20;99332.00;;;;5007006;28;20197;-79
2023/11/06 03:49:41;;;;;;;3.05;0.90;;;13.60;68.40;15.10;99342.00;;;;5003495;28;20202;-79
2023/11/06 03:52:11;;;;;;;2.53;1.17;;;13.60;68.30;15.10;99339.00;;;;5007488;28;20695;-79
2023/11/06 03:54:38;;;;;;;3.38;1.00;;;13.60;68.20;15.10;99345.00;;;;5007594;28;20273;-79
2023/11/06 03:57:05;;;;;;;2.15;0.77;;;13.50;68.10;15.10;99349.00;;;;5008406;28;20201;-79
2023/11/06 03:59:33;;;;;;;3.80;0.98;;;13.50;68.10;15.00;99352.00;;;;5010288;28;20193;-79
2023/11/06 04:02:00;;;;;;;3.00;1.00;;;13.50;68.10;15.00;99359.00;;;;5008591;28;20212;-79
2023/11/06 04:04:27;;;;;;;2.50;0.90;;;13.50;68.10;15.00;99352.00;;;;5004258;28;20586;-79
2023/11/06 04:06:55;;;;;;;2.40;0.77;;;13.40;68.70;14.90;99357.00;;;;5004795;28;20219;-78
2023/11/06 04:09:22;;;;;;;4.30;0.95;;;13.40;68.10;14.90;99354.00;;;;5001741;28;20201;-77
2023/11/06 04:11:49;;;;;;;2.60;0.68;;;13.40;68.20;14.90;99357.00;;;;5008026;28;20614;-77
2023/11/06 04:14:16;;;;;;;3.65;0.82;;;13.40;68.30;14.90;99359.00;;;;5009075;28;20212;-77
2023/11/06 04:16:43;;;;;;;3.35;1.05;;;13.30;68.20;14.90;99366.00;;;;5007246;28;20663;-77
2023/11/06 04:19:11;;;;;;;3.58;0.50;;;13.30;68.30;14.90;99365.00;;;;5008519;28;20196;-78
2023/11/06 04:21:38;;;;;;;4.32;0.55;;;13.30;68.30;14.90;99374.00;;;;5004127;28;20201;-78
2023/11/06 04:24:08;;;;;;;2.45;0.60;;;13.30;68.30;14.80;99364.00;;;;5007621;28;20192;-78
2023/11/06 04:26:35;;;;;;;1.48;0.60;;;13.30;68.30;14.80;99357.00;;;;5004834;28;20351;-77
2023/11/06 04:29:02;;;;;;;2.42;0.70;;;13.30;68.30;14.80;99367.00;;;;5006820;28;20285;-78
2023/11/06 04:31:29;;;;;;;1.35;0.63;;;13.20;68.20;14.80;99370.00;;;;5004920;28;20279;-77
2023/11/06 04:33:56;;;;;;;1.35;0.52;;;13.20;68.20;14.80;99374.00;;;;5006688;28;20197;-78
2023/11/06 04:36:23;;;;;;;1.77;0.60;;;13.20;68.20;14.70;99375.00;;;;5003212;28;20701;-78
2023/11/06 04:38:50;;;;;;;2.25;0.63;;;13.20;68.20;14.70;99379.00;;;;5011325;28;20201;-78
2023/11/06 04:41:19;;;;;;;3.45;0.40;;;13.20;68.20;14.70;99388.00;;;;5008021;28;20642;-77
2023/11/06 04:43:46;;;;;;;2.00;0.60;;;13.10;68.20;14.70;99385.00;;;;5003699;28;20333;-77
2023/11/06 04:46:13;;;;;;;1.30;0.40;;;13.20;68.30;14.70;99386.00;;;;5005007;28;20209;-78
2023/11/06 04:48:40;;;;;;;0.82;0.40;;;13.10;68.20;14.70;99386.00;;;;5008678;28;20678;-78
2023/11/06 04:51:07;;;;;;;1.30;0.30;;;13.10;68.20;14.60;99392.00;;;;5007995;28;20196;-78
2023/11/06 04:53:37;;;;;;;3.42;0.30;;;13.10;68.30;14.60;99399.00;;;;5000761;28;20197;-78
2023/11/06 04:56:08;;;;;;;1.73;0.30;;;13.10;68.30;14.60;99400.00;;;;5008052;28;20197;-77
2023/11/06 04:58:36;;;;;;;2.20;0.20;;;13.00;68.20;14.60;99402.00;;;;5008991;28;20193;-77
2023/11/06 05:01:06;;;;;;;1.70;0.38;;;13.00;68.10;14.60;99397.00;;;;5008889;28;20201;-77
2023/11/06 05:03:33;;;;;;;1.92;0.38;;;13.00;68.20;14.60;99400.00;;;;5006210;28;20299;-78
2023/11/06 05:06:02;;;;;;;1.45;0.38;;;13.00;68.20;14.50;99403.00;;;;5005423;28;20757;-78
2023/11/06 05:08:29;;;;;;;2.00;0.38;;;13.00;68.20;14.50;99410.00;;;;5005456;28;20205;-77
2023/11/06 05:10:56;;;;;;;3.83;0.52;;;13.00;68.20;14.50;99412.00;;;;4996115;28;20213;-77
2023/11/06 05:13:23;;;;;;;1.58;0.40;;;12.90;68.20;14.50;99415.00;;;;4991530;28;20319;-78
2023/11/06 05:15:52;;;;;;;1.75;0.43;;;12.90;68.20;14.40;99414.00;;;;4996505;28;20213;-77
2023/11/06 05:18:19;;;;;;;2.40;0.35;;;12.90;68.20;14.40;99418.00;;;;5007241;28;20193;-77
2023/11/06 05:20:46;;;;;;;1.48;0.40;;;12.90;68.20;14.40;99418.00;;;;5006180;28;20214;-77
2023/11/06 05:23:13;;;;;;;0.90;0.25;;;12.90;68.20;14.40;99422.00;;;;5008480;28;20197;-77
2023/11/06 05:25:40;;;;;;;1.05;0.52;;;12.90;68.30;14.40;99426.00;;;;5007726;28;20953;-77
2023/11/06 05:28:07;;;;;;;1.33;0.47;;;12.80;68.30;14.40;99421.00;;;;5007359;28;20206;-77
2023/11/06 05:30:34;;;;;;;1.20;0.20;;;12.80;68.20;14.40;99427.00;;;;5006743;28;20203;-76
2023/11/06 05:33:02;;;;;;;0.40;0.25;;;12.80;68.30;14.30;99423.00;;;;5006136;28;20220;-77
2023/11/06 05:35:29;;;;;;;3.47;0.40;;;12.80;68.30;14.30;99425.00;;;;5015750;28;20197;-77
2023/11/06 05:37:56;;;;;;;0.47;0.25;;;12.80;68.30;14.30;99422.00;;;;5004096;28;20209;-77
2023/11/06 05:40:23;;;;;;;2.00;0.50;;;12.80;68.30;14.30;99428.00;;;;5009990;28;20219;-77
2023/11/06 05:42:50;;;;;;;1.02;0.40;;;12.80;68.30;14.30;99438.00;;;;5008266;28;20193;-77
2023/11/06 05:45:17;;;;;;;1.02;0.40;;;12.70;68.20;14.30;99436.00;;;;5007257;28;20196;-77
2023/11/06 05:47:44;;;;;;;2.40;0.40;;;12.70;68.30;14.30;99431.00;;;;5007997;28;20224;-77
2023/11/06 05:50:13;;;;;;;2.10;0.32;;;12.70;68.30;14.20;99438.00;;;;5010621;28;20674;-77
2023/11/06 05:52:40;;;;;;;4.07;0.88;;;12.70;68.30;14.30;99444.00;;;;5005411;28;21052;-78
2023/11/06 05:55:08;;;;;;;2.50;0.60;;;12.70;68.30;14.20;99447.00;;;;5004971;28;20201;-77
2023/11/06 05:57:35;;;;;;;1.38;0.45;;;12.70;68.40;14.20;99456.00;;;;5013293;28;20197;-77
2023/11/06 06:00:03;;;;;;;2.75;0.40;;;12.70;68.40;14.20;99452.00;;;;5005692;28;20216;-77
2023/11/06 06:02:30;;;;;;;2.47;0.60;;;12.70;68.40;14.20;99459.00;;;;5003197;28;20196;-78
2023/11/06 06:04:57;;;;;;;1.55;0.45;;;12.70;68.50;14.20;99459.00;;;;5005713;28;20208;-77
2023/11/06 06:07:26;;;;;;;2.22;0.50;;;12.70;68.50;14.20;99455.00;;;;5005919;28;20225;-77
2023/11/06 06:09:52;;;;;;;3.28;0.30;;;12.70;68.50;14.20;99469.00;;;;5005706;28;20193;-78
2023/11/06 06:12:19;;;;;;;4.53;0.95;;;12.70;69.20;14.30;99465.00;;;;5005235;28;20596;-77
2023/11/06 06:14:46;;;;;;;3.25;0.50;;;12.70;68.60;14.30;99465.00;;;;5004718;28;20201;-76
2023/11/06 06:17:13;;;;;;;4.63;0.57;;;12.70;68.70;14.30;99466.00;;;;5005064;28;20208;-77
2023/11/06 06:19:40;;;;;;;4.15;1.02;;;12.70;68.70;14.30;99471.00;;;;5004083;28;21068;-77
2023/11/06 06:22:07;;;;;;;4.93;1.30;;;12.70;68.70;14.30;99478.00;;;;5010053;28;20211;-76
2023/11/06 06:24:36;;;;;;;4.95;0.85;;;12.70;68.80;14.30;99480.00;;;;5009609;28;20201;-76
2023/11/06 06:27:03;;;;;;;2.15;0.88;;;12.80;68.90;14.30;99478.00;;;;5010062;28;20201;-78
2023/11/06 06:29:30;;;;;;;6.90;1.23;;;12.80;68.90;14.30;99485.00;;;;5009107;28;20199;-77
2023/11/06 06:31:57;;;;;;;3.05;0.80;;;12.80;68.90;14.40;99480.00;;;;5011857;28;20227;-77
2023/11/06 06:34:24;;;;;;;3.55;0.88;;;12.80;68.90;14.40;99484.00;;;;5011052;28;20192;-77
2023/11/06 06:36:51;;;;;;;3.63;1.27;;;12.80;68.90;14.40;99488.00;;;;5003355;28;20299;-78
2023/11/06 06:39:18;;;;;;;3.00;1.00;;;12.80;68.80;14.40;99492.00;;;;5008196;28;20209;-78
2023/11/06 06:41:46;;;;;;;4.65;1.10;;;12.80;68.80;14.40;99488.00;;;;5014125;28;20220;-77
2023/11/06 06:44:13;;;;;;;2.28;0.75;;;12.80;68.70;14.40;99496.00;;;;5004487;28;20205;-78
2023/11/06 06:46:40;;;;;;;2.80;0.95;;;12.80;68.70;14.40;99495.00;;;;4999970;28;20758;-78
2023/11/06 06:49:07;;;;;;;2.28;0.80;;;12.80;68.70;14.40;99502.00;;;;5002403;28;20577;-77
2023/11/06 06:51:34;;;;;;;4.50;1.30;;;12.80;68.70;14.40;99494.00;;;;4999910;28;20205;-78
2023/11/06 06:54:02;;;;;;;2.53;1.40;;;12.80;68.70;14.40;99496.00;;;;5004462;28;20565;-78
2023/11/06 06:56:31;;;;;;;4.95;1.50;;;12.80;68.60;14.40;99506.00;;;;5009507;28;20228;-78
2023/11/06 06:58:59;;;;;;;3.95;1.90;;;12.80;68.60;14.40;99507.00;;;;5009077;28;20201;-78
2023/11/06 07:01:26;;;;;;;6.47;1.92;;;12.90;68.70;14.40;99506.00;;;;5010148;28;20200;-78
2023/11/06 07:03:54;;;;;;;4.45;1.35;;;12.80;68.60;14.40;99506.00;;;;5007298;28;20208;-78
2023/11/06 07:06:21;;;;;;;3.50;1.70;;;12.80;68.70;14.40;99511.00;;;;5008125;28;20219;-78
2023/11/06 07:08:55;;;;;;;3.60;1.25;;;12.80;68.70;14.40;99513.00;;;;5008440;28;20197;-78
2023/11/06 07:11:22;;;;;;;3.40;1.27;;;12.80;68.70;14.40;99515.00;;;;5007578;28;20204;-78
2023/11/06 07:13:49;;;;;;;3.83;1.40;;;12.80;68.70;14.40;99520.00;;;;5009127;28;20243;-79
2023/11/06 07:16:17;;;;;;;7.25;1.55;;;12.80;68.70;14.40;99525.00;;;;5002475;28;20663;-79
2023/11/06 07:18:44;;;;;;;3.92;1.70;;;12.80;68.80;14.40;99527.00;;;;5006194;28;20690;-78
2023/11/06 07:21:12;;;;;;;6.28;2.38;;;12.90;68.80;14.40;99539.00;;;;5006624;28;20702;-79
2023/11/06 07:23:39;;;;;;;7.35;1.38;;;12.80;68.80;14.40;99536.00;;;;5008605;28;20192;-78
2023/11/06 07:26:07;;;;;;;5.50;1.13;;;12.90;68.80;14.40;99529.00;;;;5003125;28;20224;-79
2023/11/06 07:28:34;;;;;;;3.67;1.65;;;12.90;68.80;14.40;99539.00;;;;5008251;28;20659;-79
2023/11/06 07:31:01;;;;;;;3.63;1.17;;;12.90;68.80;14.40;99543.00;;;;5007469;28;20670;-77
2023/11/06 07:33:30;;;;;;;4.28;1.20;;;12.90;68.90;14.50;99550.00;;;;5007433;28;20208;-78
2023/11/06 07:35:57;;;;;;;4.53;0.98;;;12.90;68.90;14.50;99551.00;;;;5009261;28;20204;-78
2023/11/06 07:38:24;;;;;;;4.22;1.08;;;12.90;68.80;14.50;99552.00;;;;5009332;28;20672;-78
2023/11/06 07:40:51;;;;;;;2.35;0.75;;;12.90;68.80;14.50;99566.00;;;;5008458;28;20817;-78
2023/11/06 07:43:18;;;;;;;3.85;0.80;;;13.00;68.90;14.60;99557.00;;;;5005613;28;20694;-78
2023/11/06 07:45:45;;;;;;;6.30;1.27;;;13.00;68.90;14.60;99557.00;;;;5008573;28;20193;-79
2023/11/06 07:48:13;;;;;;;4.32;1.02;;;13.00;68.80;14.60;99561.00;;;;5006057;28;20201;-79
2023/11/06 07:50:41;;;;;;;4.63;0.93;;;13.00;68.70;14.60;99570.00;;;;5009153;28;20569;-79
2023/11/06 07:53:08;;;;;;;5.47;0.88;;;13.10;68.80;14.60;99556.00;;;;5009274;28;20220;-78
2023/11/06 07:55:35;;;;;;;3.42;1.00;;;13.10;68.70;14.70;99574.00;;;;5006187;28;20578;-78
2023/11/06 07:58:02;;;;;;;4.53;0.95;;;13.10;68.70;14.70;99570.00;;;;5009116;28;20205;-78
2023/11/06 08:00:30;;;;;;;4.38;1.23;;;13.10;68.60;14.70;99583.00;;;;5003924;28;20730;-78
2023/11/06 08:02:56;;;;;;;4.13;1.25;;;13.10;68.60;14.70;99577.00;;;;5004568;28;20300;-79
2023/11/06 08:05:23;;;;;;;2.35;0.80;;;13.20;68.70;14.80;99574.00;;;;5005458;28;20204;-79
2023/11/06 08:07:52;;;;;;;2.47;0.93;;;13.20;68.70;14.80;99582.00;;;;5005573;28;20786;-79
2023/11/06 08:10:19;;;;;;;3.92;1.17;;;13.20;68.60;14.80;99586.00;;;;5000222;28;20197;-78
2023/11/06 08:12:46;;;;;;;3.65;1.10;;;13.20;68.60;14.80;99582.00;;;;5004858;28;20225;-79
2023/11/06 08:15:13;;;;;;;3.85;0.98;;;13.30;68.60;14.90;99593.00;;;;5001715;28;20654;-79
2023/11/06 08:17:40;;;;;;;3.47;1.20;;;13.30;68.60;14.90;99590.00;;;;5001261;28;20201;-79
2023/11/06 08:20:09;;;;;;;5.43;0.90;;;13.30;68.60;15.00;99589.00;;;;5006592;28;20789;-78
2023/11/06 08:22:36;;;;;;;5.95;1.05;;;13.40;68.50;15.00;99599.00;;;;5004395;28;20223;-79
2023/11/06 08:25:06;;;;;;;5.18;1.10;;;13.40;68.50;15.00;99597.00;;;;5006513;28;20686;-78
2023/11/06 08:27:33;;;;;;;3.30;1.05;;;13.40;68.40;15.10;99597.00;;;;5009675;28;20273;-78
2023/11/06 08:30:03;;;;;;;5.47;1.00;;;13.50;68.40;15.10;99592.00;;;;5007019;28;20201;-78
2023/11/06 08:32:30;;;;;;;4.28;1.58;;;13.50;68.30;15.10;99599.00;;;;5008791;28;20217;-79
2023/11/06 08:34:57;;;;;;;4.40;0.60;;;13.50;68.20;15.10;99587.00;;;;5007261;28;20197;-78
2023/11/06 08:37:24;;;;;;;5.82;1.00;;;13.60;68.20;15.20;99598.00;;;;5008487;28;20199;-78
2023/11/06 08:39:51;;;;;;;3.78;1.10;;;13.60;68.20;15.20;99601.00;;;;5007968;28;20215;-78
2023/11/06 08:42:20;;;;;;;2.55;0.77;;;13.60;68.10;15.20;99605.00;;;;5002023;28;21638;-79
2023/11/06 08:44:47;;;;;;;4.47;0.77;;;13.60;67.90;15.20;99606.00;;;;5004394;28;20203;-78
2023/11/06 08:47:16;;;;;;;5.93;1.35;;;13.70;67.90;15.20;99613.00;;;;5003666;28;20224;-79
2023/11/06 08:49:43;;;;;;;6.03;1.33;;;13.70;67.80;15.20;99615.00;;;;5005910;28;20280;-78
2023/11/06 08:52:10;;;;;;;7.13;1.42;;;13.70;67.80;15.30;99612.00;;;;5008134;28;20247;-79
2023/11/06 08:54:39;;;;;;;20.85;2.25;;;13.70;67.90;15.30;99612.00;;;;5007134;28;20220;-79
2023/11/06 08:57:06;;;;;;;533.47;55.20;;;13.70;68.00;15.30;99623.00;;;;5002623;28;20681;-79
2023/11/06 08:59:35;;;;;;;39.97;6.63;;;13.80;68.10;15.40;99610.00;;;;5003595;28;20197;-79
2023/11/06 09:02:02;;;;;;;11.20;2.83;;;13.80;68.10;15.40;99620.00;;;;5001931;28;20205;-79
2023/11/06 09:04:29;;;;;;;8.90;1.40;;;13.80;68.20;15.50;99624.00;;;;5007396;28;20229;-79
2023/11/06 09:06:56;;;;;;;7.78;1.33;;;13.90;68.30;15.60;99626.00;;;;5007241;28;20212;-80
2023/11/06 09:09:24;;;;;;;181.80;21.30;;;14.00;68.30;15.70;99637.00;;;;5000520;28;20205;-78
2023/11/06 09:11:51;;;;;;;46.55;5.93;;;14.00;68.40;15.70;99636.00;;;;5008045;28;20225;-79
2023/11/06 09:14:18;;;;;;;7.93;2.08;;;14.10;68.30;15.80;99643.00;;;;5006950;28;20717;-79
2023/11/06 09:16:48;;;;;;;5.00;1.13;;;14.10;68.20;15.80;99641.00;;;;4998794;28;20663;-79
2023/11/06 09:19:16;;;;;;;9.10;1.52;;;14.20;68.10;15.90;99644.00;;;;5007818;28;20204;-79
2023/11/06 09:21:43;;;;;;;911.53;119.07;;;14.30;68.70;15.90;99656.00;;;;4999648;28;20279;-79
2023/11/06 09:24:11;;;;;;;161.45;21.73;;;14.30;67.80;16.00;99638.00;;;;5005035;28;20247;-77
2023/11/06 09:26:39;;;;;;;21.67;4.57;;;14.40;67.80;16.00;99646.00;;;;5001573;28;20277;-79
2023/11/06 09:29:07;;;;;;;12.02;2.72;;;14.40;67.70;16.10;99656.00;;;;5006906;28;20208;-78
2023/11/06 09:31:34;;;;;;;8.38;1.90;;;14.50;67.80;16.10;99658.00;;;;5009064;28;20215;-78
2023/11/06 09:34:04;;;;;;;419.13;38.92;;;14.50;67.70;16.20;99660.00;;;;5011562;28;20729;-78
2023/11/06 09:36:32;;;;;;;287.45;28.88;;;14.60;67.80;16.30;99672.00;;;;5005096;28;20643;-79
2023/11/06 09:38:59;;;;;;;54.03;11.27;;;14.60;67.80;16.40;99675.00;;;;5006661;28;20197;-79
2023/11/06 09:41:26;;;;;;;17.25;2.80;;;14.70;67.70;16.40;99680.00;;;;5006139;28;20545;-78
2023/11/06 09:43:53;;;;;;;9.15;2.15;;;14.80;67.70;16.50;99684.00;;;;5011451;28;20193;-79
2023/11/06 09:46:20;;;;;;;3.60;1.50;;;14.90;67.50;16.60;99693.00;;;;5005314;28;20197;-79
2023/11/06 09:48:48;;;;;;;8.45;1.90;;;14.90;67.50;16.60;99698.00;;;;5007417;28;20571;-79
2023/11/06 09:51:17;;;;;;;17.48;2.15;;;15.00;67.50;16.70;99697.00;;;;5002545;28;20200;-79
2023/11/06 09:53:46;;;;;;;5.32;1.40;;;15.10;67.50;16.80;99704.00;;;;5002930;28;20221;-79
2023/11/06 09:56:14;;;;;;;6.78;1.45;;;15.20;67.30;16.90;99709.00;;;;5011505;28;20192;-79
2023/11/06 09:58:43;;;;;;;3.97;1.20;;;15.20;67.10;16.90;99706.00;;;;5006322;28;20196;-80
2023/11/06 10:01:12;;;;;;;5.30;1.83;;;15.30;67.00;17.00;99702.00;;;;5009212;28;20340;-80
2023/11/06 10:03:40;;;;;;;3.70;1.75;;;15.40;66.80;17.10;99708.00;;;;5018057;28;20209;-80
2023/11/06 10:06:08;;;;;;;7.03;1.27;;;15.40;66.90;17.20;99707.00;;;;5008574;28;20687;-80
2023/11/06 10:08:37;;;;;;;5.80;1.50;;;15.50;66.90;17.20;99708.00;;;;5005953;28;20681;-80
2023/11/06 10:11:07;;;;;;;6.47;1.58;;;15.60;66.50;17.20;99713.00;;;;5005780;28;20216;-80
2023/11/06 10:13:50;;;;;;;5.85;1.48;;;15.70;66.40;17.20;99707.00;;;;5008549;28;20228;-79
2023/11/06 10:16:22;;;;;;;3.63;1.05;;;15.70;66.20;17.30;99714.00;;;;5005598;28;20500;-79
2023/11/06 10:18:50;;;;;;;5.25;1.52;;;15.70;65.90;17.40;99717.00;;;;5007232;28;20733;-79
2023/11/06 10:21:28;;;;;;;8.98;1.80;;;15.80;65.80;17.30;99708.00;;;;5007175;28;20193;-79
2023/11/06 10:24:01;;;;;;;6.50;2.00;;;15.80;65.40;17.40;99725.00;;;;5005099;28;20197;-79
2023/11/06 10:26:31;;;;;;;6.47;1.20;;;15.80;65.40;17.40;99731.00;;;;5016831;28;20207;-79
2023/11/06 10:29:10;;;;;;;4.53;1.40;;;15.80;65.30;17.30;99722.00;;;;5003758;28;20316;-79
2023/11/06 10:31:39;;;;;;;6.07;1.42;;;15.90;65.00;17.40;99735.00;;;;5006457;28;20256;-80
2023/11/06 10:34:27;;;;;;;2.70;1.17;;;15.90;65.20;17.30;99734.00;;;;5000171;28;20228;-79
2023/11/06 10:37:06;;;;;;;2.90;1.17;;;15.90;64.70;17.40;99739.00;;;;5002384;28;20272;-80
2023/11/06 10:39:35;;;;;;;5.88;1.40;;;15.90;64.60;17.50;99738.00;;;;5007048;28;20674;-80
2023/11/06 10:42:03;;;;;;;3.88;1.10;;;15.90;64.70;17.50;99738.00;;;;5004401;28;20209;-80
2023/11/06 10:44:34;;;;;;;4.22;1.60;;;16.00;64.70;17.50;99742.00;;;;5008905;28;20197;-80
2023/11/06 10:47:06;;;;;;;5.25;1.40;;;15.90;65.00;17.50;99734.00;;;;5012899;28;20670;-80
2023/11/06 10:49:35;;;;;;;6.95;1.48;;;16.00;64.50;17.50;99732.00;;;;5005028;28;20200;-80
2023/11/06 10:52:06;;;;;;;4.50;1.40;;;16.00;64.30;17.50;99739.00;;;;5000219;28;20205;-80
2023/11/06 10:54:36;;;;;;;5.20;1.67;;;16.00;64.60;17.60;99742.00;;;;5015067;28;20282;-79